Time;durP1;ratioP1;P1;durP2;ratioP2;P2;SDS_P1;SDS_P2;PMS_P1;PMS_P2;Temp;Humidity;BMP_temperature;BMP_pressure;BME280_temperature;BME280_humidity;BME280_pressure;Samples;Min_cycle;Max_cycle;Signal;HPM_P1;HPM_P2
2022/06/06 00:01:58;;;;;;;4.13;2.60;;;15.50;99.90;;;;;;5058287;28;20036;-71
2022/06/06 00:04:27;;;;;;;4.72;2.20;;;15.60;99.90;;;;;;5048601;28;20047;-71
2022/06/06 00:06:55;;;;;;;6.03;2.83;;;15.60;99.90;;;;;;5057345;28;20710;-71
2022/06/06 00:09:21;;;;;;;5.18;1.75;;;15.50;99.90;;;;;;5047240;28;20114;-71
2022/06/06 00:11:46;;;;;;;4.15;2.20;;;15.50;99.90;;;;;;5060767;28;20435;-72
2022/06/06 00:14:13;;;;;;;3.63;1.98;;;15.50;99.90;;;;;;5058030;28;20441;-72
2022/06/06 00:16:39;;;;;;;4.15;2.00;;;15.40;99.90;;;;;;5056232;28;20122;-72
2022/06/06 00:19:05;;;;;;;3.40;1.73;;;15.50;99.90;;;;;;5043530;28;20603;-72
2022/06/06 00:21:33;;;;;;;3.10;1.55;;;15.40;99.90;;;;;;5063196;28;20088;-72
2022/06/06 00:24:00;;;;;;;2.85;1.50;;;15.40;99.90;;;;;;5053255;28;20431;-71
2022/06/06 00:26:30;;;;;;;4.40;1.98;;;15.40;99.90;;;;;;5041696;28;20508;-71
2022/06/06 00:28:56;;;;;;;4.00;1.70;;;15.40;99.90;;;;;;5042651;28;20128;-72
2022/06/06 00:36:52;;;;;;;3.13;1.42;;;15.30;99.90;;;;;;5058401;28;20074;-71
2022/06/06 00:39:18;;;;;;;2.00;1.10;;;15.30;99.90;;;;;;5050457;28;20032;-71
2022/06/06 00:41:49;;;;;;;3.08;1.52;;;15.30;99.90;;;;;;5043147;28;20130;-71
2022/06/06 00:44:21;;;;;;;3.17;1.35;;;15.30;99.90;;;;;;5058878;28;20028;-71
2022/06/06 00:47:05;;;;;;;2.78;1.35;;;15.30;99.90;;;;;;5055817;28;20036;-71
2022/06/06 00:49:38;;;;;;;2.63;1.55;;;15.30;99.90;;;;;;5040953;28;20055;-71
2022/06/06 00:52:14;;;;;;;3.08;1.70;;;15.30;99.90;;;;;;5060878;28;20401;-71
2022/06/06 00:54:41;;;;;;;3.85;1.88;;;15.30;99.90;;;;;;5066635;28;20115;-71
2022/06/06 00:57:13;;;;;;;2.45;1.23;;;15.20;99.90;;;;;;5046482;28;20124;-71
2022/06/06 00:59:42;;;;;;;2.67;1.50;;;15.20;99.90;;;;;;5054349;28;20040;-71
2022/06/06 01:02:10;;;;;;;3.03;1.50;;;15.30;99.90;;;;;;5056708;28;20381;-71
2022/06/06 01:04:38;;;;;;;2.42;1.25;;;15.20;99.90;;;;;;5040234;28;20550;-71
2022/06/06 01:07:06;;;;;;;2.88;1.80;;;15.20;99.90;;;;;;5061588;28;20405;-71
2022/06/06 01:09:31;;;;;;;2.55;1.40;;;15.20;99.90;;;;;;5055548;28;20414;-71
2022/06/06 01:12:00;;;;;;;2.72;1.63;;;15.20;99.90;;;;;;5059853;28;20040;-71
2022/06/06 01:14:29;;;;;;;1.95;0.90;;;15.10;99.90;;;;;;5038969;28;20494;-72
2022/06/06 01:17:03;;;;;;;1.67;0.90;;;15.10;99.90;;;;;;5059265;28;20074;-72
2022/06/06 01:19:44;;;;;;;3.15;1.25;;;15.10;99.90;;;;;;5054936;28;20036;-72
2022/06/06 01:22:31;;;;;;;1.67;1.08;;;15.10;99.90;;;;;;5044794;28;20051;-72
2022/06/06 01:25:16;;;;;;;2.90;1.40;;;15.10;99.90;;;;;;5059392;28;20555;-72
2022/06/06 01:27:44;;;;;;;2.22;1.25;;;15.10;99.90;;;;;;5046584;28;20028;-72
2022/06/06 01:30:21;;;;;;;1.75;0.93;;;15.10;99.90;;;;;;5055092;28;21385;-72
2022/06/06 01:32:52;;;;;;;2.67;1.20;;;15.00;99.90;;;;;;5055329;28;20048;-72
2022/06/06 01:35:34;;;;;;;2.67;1.20;;;15.00;99.90;;;;;;5043873;28;20143;-72
2022/06/06 01:38:01;;;;;;;2.78;1.25;;;15.00;99.90;;;;;;5062219;28;20028;-72
2022/06/06 01:40:39;;;;;;;3.05;1.40;;;14.90;99.90;;;;;;5052564;28;20028;-72
2022/06/06 01:43:13;;;;;;;2.17;1.27;;;15.00;99.90;;;;;;5053456;28;20036;-72
2022/06/06 01:46:00;;;;;;;2.50;1.17;;;14.90;99.90;;;;;;5058633;28;20036;-71
2022/06/06 01:48:32;;;;;;;2.35;1.40;;;14.90;99.90;;;;;;5045522;28;20111;-72
2022/06/06 01:50:58;;;;;;;3.20;1.50;;;15.00;99.90;;;;;;5041192;28;20048;-71
2022/06/06 01:53:25;;;;;;;7.82;1.35;;;14.90;99.90;;;;;;5054599;28;20036;-72
2022/06/06 01:55:53;;;;;;;2.70;1.60;;;14.90;99.90;;;;;;5055386;28;20040;-72
2022/06/06 01:58:23;;;;;;;3.05;1.48;;;14.90;99.90;;;;;;5061488;28;20036;-72
2022/06/06 02:00:49;;;;;;;2.28;1.38;;;14.80;99.90;;;;;;5052565;28;20462;-72
2022/06/06 02:03:15;;;;;;;3.08;1.38;;;14.90;99.90;;;;;;5031099;28;20043;-72
2022/06/06 02:05:41;;;;;;;3.83;1.92;;;14.80;99.90;;;;;;5057156;28;20028;-72
2022/06/06 02:08:08;;;;;;;3.83;1.58;;;14.80;99.90;;;;;;5053168;28;20043;-72
2022/06/06 02:10:34;;;;;;;2.22;1.50;;;14.80;99.90;;;;;;5055349;28;20028;-71
2022/06/06 02:13:00;;;;;;;3.60;1.70;;;14.80;99.90;;;;;;5061759;28;20603;-72
2022/06/06 02:15:26;;;;;;;4.05;2.13;;;14.80;99.90;;;;;;5056311;28;20043;-72
2022/06/06 02:17:53;;;;;;;2.67;1.80;;;14.70;99.90;;;;;;5062425;28;20070;-71
2022/06/06 02:20:21;;;;;;;2.70;1.40;;;14.80;99.90;;;;;;5059690;28;20088;-72
2022/06/06 02:22:47;;;;;;;2.85;1.50;;;14.70;99.90;;;;;;5053817;28;20199;-72
2022/06/06 02:25:13;;;;;;;2.78;1.60;;;14.70;99.90;;;;;;5043597;28;20186;-71
2022/06/06 02:27:40;;;;;;;3.13;1.50;;;14.70;99.90;;;;;;5057197;28;20032;-71
2022/06/06 02:30:10;;;;;;;2.85;1.73;;;14.70;99.90;;;;;;5056910;28;20482;-71
2022/06/06 02:32:35;;;;;;;2.70;1.40;;;14.70;99.90;;;;;;5060308;28;20414;-72
2022/06/06 02:35:01;;;;;;;3.13;1.40;;;14.70;99.90;;;;;;5054226;28;20109;-72
2022/06/06 02:37:27;;;;;;;2.78;1.63;;;14.70;99.90;;;;;;5051204;28;20039;-71
2022/06/06 02:39:52;;;;;;;4.68;2.10;;;14.70;99.90;;;;;;5054127;28;20075;-71
2022/06/06 02:42:18;;;;;;;3.25;1.42;;;14.70;99.90;;;;;;5038893;28;20036;-72
2022/06/06 02:44:44;;;;;;;3.80;2.17;;;14.70;99.90;;;;;;5056424;28;20237;-72
2022/06/06 02:47:09;;;;;;;4.50;2.20;;;14.70;99.90;;;;;;5055557;28;20039;-72
2022/06/06 02:49:35;;;;;;;3.47;1.42;;;14.70;99.90;;;;;;5054739;28;20075;-72
2022/06/06 02:52:03;;;;;;;3.53;1.73;;;14.60;99.90;;;;;;5054748;28;20085;-72
2022/06/06 02:54:29;;;;;;;2.42;1.25;;;14.70;99.90;;;;;;5057307;28;20489;-71
2022/06/06 02:56:56;;;;;;;2.60;1.38;;;14.60;99.90;;;;;;5054534;28;20044;-72
2022/06/06 02:59:24;;;;;;;2.60;1.38;;;14.60;99.90;;;;;;5051251;28;20480;-72
2022/06/06 03:01:51;;;;;;;2.70;1.20;;;14.60;99.90;;;;;;5057012;28;20063;-71
2022/06/06 03:04:17;;;;;;;2.47;1.30;;;14.60;99.90;;;;;;5043387;28;21362;-71
2022/06/06 03:07:07;;;;;;;3.40;1.60;;;14.60;99.90;;;;;;5050039;28;20048;-71
2022/06/06 03:10:11;;;;;;;2.72;1.50;;;14.60;99.90;;;;;;5057895;28;20401;-72
2022/06/06 03:12:56;;;;;;;4.05;1.80;;;14.60;99.90;;;;;;5057899;28;20048;-71
2022/06/06 03:20:46;;;;;;;2.85;1.60;;;14.60;99.90;;;;;;5056325;28;20040;-71
2022/06/06 03:21:53;;;;;;;3.20;1.67;;;14.60;99.90;;;;;;5055518;28;20421;-71
2022/06/06 03:24:46;;;;;;;4.85;2.13;;;14.60;99.90;;;;;;5053183;28;20036;-71
2022/06/06 03:27:39;;;;;;;6.75;2.50;;;14.50;99.90;;;;;;5055865;28;20046;-72
2022/06/06 03:30:19;;;;;;;4.82;2.13;;;14.50;99.90;;;;;;5049200;28;20043;-71
2022/06/06 03:33:13;;;;;;;3.42;1.83;;;14.50;99.90;;;;;;5054811;28;20048;-71
2022/06/06 03:35:57;;;;;;;4.35;2.45;;;14.50;99.90;;;;;;5057276;28;20051;-71
2022/06/06 03:38:28;;;;;;;7.43;3.83;;;14.40;99.90;;;;;;5055865;28;20036;-71
2022/06/06 03:40:56;;;;;;;7.05;3.55;;;14.50;99.90;;;;;;5055251;28;20521;-72
2022/06/06 03:43:34;;;;;;;8.38;3.75;;;14.40;99.90;;;;;;5054494;28;20115;-71
2022/06/06 03:46:22;;;;;;;9.48;3.75;;;14.40;99.90;;;;;;5058158;28;20040;-72
2022/06/06 03:49:02;;;;;;;8.20;3.13;;;14.40;99.90;;;;;;5060534;28;20119;-72
2022/06/06 03:51:40;;;;;;;4.65;2.50;;;14.40;99.90;;;;;;5054526;28;20075;-71
2022/06/06 03:54:40;;;;;;;5.28;3.05;;;14.40;99.90;;;;;;5059498;28;20398;-71
2022/06/06 03:57:13;;;;;;;4.10;2.17;;;14.30;99.90;;;;;;5073870;28;20044;-71
2022/06/06 03:59:41;;;;;;;4.35;1.85;;;14.30;99.90;;;;;;5052570;28;20120;-71
2022/06/06 04:02:10;;;;;;;4.45;2.08;;;14.20;99.90;;;;;;5040165;28;20040;-72
2022/06/06 04:04:36;;;;;;;4.32;1.88;;;14.20;99.90;;;;;;5057087;28;20040;-71
2022/06/06 04:07:03;;;;;;;4.43;2.10;;;14.20;99.90;;;;;;5054255;28;20041;-71
2022/06/06 04:09:34;;;;;;;3.95;2.10;;;14.20;99.90;;;;;;5057816;28;20040;-71
2022/06/06 04:12:03;;;;;;;4.07;1.80;;;14.10;99.90;;;;;;5056786;28;20040;-71
2022/06/06 04:14:46;;;;;;;4.13;1.65;;;14.10;99.90;;;;;;5056770;28;20045;-71
2022/06/06 04:17:30;;;;;;;4.30;2.17;;;14.00;99.90;;;;;;5064931;28;20616;-71
2022/06/06 04:20:17;;;;;;;5.57;2.10;;;14.00;99.90;;;;;;5054794;28;20490;-71
2022/06/06 04:23:11;;;;;;;4.18;2.20;;;14.00;99.90;;;;;;5075165;28;20524;-72
2022/06/06 04:25:41;;;;;;;4.43;2.22;;;14.00;99.90;;;;;;5057270;28;20207;-71
2022/06/06 04:28:17;;;;;;;5.57;2.40;;;14.00;99.90;;;;;;5058795;28;20115;-71
2022/06/06 04:31:09;;;;;;;4.28;2.00;;;14.00;99.90;;;;;;5059485;28;20128;-71
2022/06/06 04:33:48;;;;;;;3.10;1.80;;;14.00;99.90;;;;;;5053364;28;20519;-71
2022/06/06 04:36:16;;;;;;;3.90;1.98;;;14.00;99.90;;;;;;5076905;28;20068;-71
2022/06/06 04:38:54;;;;;;;6.15;2.78;;;13.90;99.90;;;;;;5039454;28;20081;-71
2022/06/06 04:41:29;;;;;;;5.43;2.60;;;13.90;99.90;;;;;;5042340;28;20048;-71
2022/06/06 04:44:15;;;;;;;5.10;2.13;;;13.90;99.90;;;;;;5078159;28;20028;-72
2022/06/06 04:46:51;;;;;;;3.42;2.00;;;13.90;99.90;;;;;;5060633;28;20048;-72
2022/06/06 04:49:17;;;;;;;4.85;2.60;;;13.90;99.90;;;;;;5070400;28;20410;-72
2022/06/06 04:51:44;;;;;;;5.95;2.70;;;13.90;99.90;;;;;;5057907;28;20052;-71
2022/06/06 04:54:14;;;;;;;5.78;2.90;;;13.90;99.90;;;;;;5054069;28;20044;-71
2022/06/06 04:56:42;;;;;;;6.85;2.80;;;14.00;99.90;;;;;;5041722;28;20040;-71
2022/06/06 04:59:10;;;;;;;9.18;3.00;;;13.90;99.90;;;;;;5041895;28;20485;-71
2022/06/06 05:01:38;;;;;;;8.27;2.95;;;13.90;99.90;;;;;;5057604;28;20032;-71
2022/06/06 05:04:03;;;;;;;7.78;2.95;;;13.90;99.90;;;;;;5061633;28;20036;-71
2022/06/06 05:07:00;;;;;;;6.28;2.45;;;13.90;99.90;;;;;;5046963;28;20036;-71
2022/06/06 05:09:37;;;;;;;10.18;3.45;;;13.90;99.90;;;;;;5053135;28;20592;-72
2022/06/06 05:12:10;;;;;;;6.30;2.53;;;13.80;99.90;;;;;;5057813;28;20103;-71
2022/06/06 05:15:13;;;;;;;5.18;2.30;;;13.80;99.90;;;;;;5057729;28;20079;-71
2022/06/06 05:17:42;;;;;;;4.50;2.38;;;13.90;99.90;;;;;;5042160;28;20074;-71
2022/06/06 05:20:33;;;;;;;7.97;2.47;;;13.80;99.90;;;;;;5076871;28;20198;-71
2022/06/06 05:23:14;;;;;;;5.50;2.55;;;13.90;99.90;;;;;;5043872;28;20040;-71
2022/06/06 05:25:52;;;;;;;6.25;2.53;;;13.90;99.90;;;;;;5045810;28;20115;-71
2022/06/06 05:28:44;;;;;;;5.93;2.60;;;13.80;99.90;;;;;;5039888;28;20073;-72
2022/06/06 05:31:32;;;;;;;5.28;2.05;;;13.90;99.90;;;;;;5058956;28;20063;-71
2022/06/06 05:34:03;;;;;;;5.28;2.50;;;13.80;99.90;;;;;;5053409;28;20048;-71
2022/06/06 05:36:31;;;;;;;6.22;2.22;;;13.80;99.90;;;;;;5040676;28;20045;-71
2022/06/06 05:39:31;;;;;;;10.27;2.75;;;13.80;99.90;;;;;;5072360;28;20040;-71
2022/06/06 05:42:14;;;;;;;4.30;1.85;;;13.80;99.90;;;;;;5051267;28;20052;-71
2022/06/06 05:45:00;;;;;;;6.85;2.42;;;13.80;99.90;;;;;;5076978;28;20075;-71
2022/06/06 05:47:49;;;;;;;4.70;2.40;;;13.80;99.90;;;;;;5060555;28;20127;-72
2022/06/06 05:50:29;;;;;;;3.42;1.73;;;13.80;99.90;;;;;;5059726;28;20055;-71
2022/06/06 05:53:12;;;;;;;4.25;1.58;;;13.80;99.90;;;;;;5051574;28;20269;-71
2022/06/06 05:56:09;;;;;;;5.88;2.72;;;13.80;99.90;;;;;;5061850;28;20040;-71
2022/06/06 05:59:12;;;;;;;5.50;2.25;;;13.90;99.90;;;;;;5057155;28;20043;-71
2022/06/06 06:01:49;;;;;;;5.88;2.50;;;13.90;99.90;;;;;;5072248;28;20064;-71
2022/06/06 06:04:32;;;;;;;5.53;2.63;;;13.90;99.90;;;;;;5056005;28;20062;-72
2022/06/06 06:07:24;;;;;;;4.72;2.10;;;13.90;99.90;;;;;;5056765;28;20105;-71
2022/06/06 06:10:05;;;;;;;5.07;2.28;;;13.90;99.90;;;;;;5055806;28;20043;-71
2022/06/06 06:12:37;;;;;;;7.68;2.20;;;13.90;99.90;;;;;;5058153;28;20477;-71
2022/06/06 06:15:02;;;;;;;3.60;1.77;;;13.90;99.90;;;;;;5041949;28;20489;-71
2022/06/06 06:17:32;;;;;;;5.88;2.03;;;13.90;99.90;;;;;;5056163;28;20042;-71
2022/06/06 06:20:06;;;;;;;3.88;1.83;;;13.90;99.90;;;;;;5057325;28;20043;-71
2022/06/06 06:22:50;;;;;;;7.70;2.88;;;13.90;99.90;;;;;;5059087;28;20036;-71
2022/06/06 06:25:18;;;;;;;3.35;1.63;;;13.90;99.90;;;;;;5063250;28;20165;-71
2022/06/06 06:27:45;;;;;;;4.65;2.00;;;13.90;99.90;;;;;;5058677;28;20607;-71
2022/06/06 06:30:13;;;;;;;6.13;1.92;;;13.90;99.90;;;;;;5051468;28;20071;-71
2022/06/06 06:32:55;;;;;;;5.78;2.55;;;13.90;99.90;;;;;;5065896;28;20091;-71
2022/06/06 06:35:39;;;;;;;6.43;2.45;;;13.90;99.90;;;;;;5064357;28;20401;-71
2022/06/06 06:38:42;;;;;;;7.28;2.97;;;13.90;99.90;;;;;;5082820;28;20052;-71
2022/06/06 06:41:18;;;;;;;6.72;2.72;;;13.90;99.90;;;;;;5060011;28;20150;-71
2022/06/06 06:44:11;;;;;;;8.27;2.08;;;13.90;99.90;;;;;;5042680;28;20036;-71
2022/06/06 06:47:20;;;;;;;5.38;2.30;;;14.00;99.90;;;;;;5042458;28;20124;-71
2022/06/06 06:49:53;;;;;;;4.78;1.92;;;14.20;99.90;;;;;;5030776;28;20047;-71
2022/06/06 06:52:37;;;;;;;6.10;2.72;;;14.70;99.90;;;;;;5060217;28;20458;-72
2022/06/06 06:55:32;;;;;;;5.38;2.03;;;14.90;99.90;;;;;;5057089;28;20048;-71
2022/06/06 06:58:01;;;;;;;6.47;2.20;;;15.00;99.90;;;;;;5056964;28;20040;-71
2022/06/06 07:00:34;;;;;;;4.55;2.00;;;15.10;99.90;;;;;;5054914;28;20036;-71
2022/06/06 07:09:47;;;;;;;5.45;2.10;;;15.00;99.90;;;;;;5056427;28;20040;-71
2022/06/06 07:12:30;;;;;;;4.30;1.70;;;15.00;99.90;;;;;;5049553;28;20481;-71
2022/06/06 07:14:59;;;;;;;5.40;1.48;;;15.10;99.90;;;;;;5044828;28;20063;-71
2022/06/06 07:17:26;;;;;;;4.40;1.40;;;15.10;99.90;;;;;;5040733;28;20089;-71
2022/06/06 07:20:03;;;;;;;2.97;1.33;;;15.00;99.90;;;;;;5053991;28;20106;-72
2022/06/06 07:22:59;;;;;;;4.30;1.95;;;15.00;99.90;;;;;;5058397;28;20115;-72
2022/06/06 07:25:19;;;;;;;4.80;1.83;;;15.10;99.90;;;;;;5055765;28;20401;-71
2022/06/06 07:27:45;;;;;;;4.22;1.92;;;15.10;99.90;;;;;;5056588;28;20473;-71
2022/06/06 07:30:11;;;;;;;6.22;1.95;;;15.10;99.90;;;;;;5041485;28;20039;-71
2022/06/06 07:32:52;;;;;;;6.30;2.25;;;15.10;99.90;;;;;;5054164;28;20167;-71
2022/06/06 07:35:34;;;;;;;5.68;1.85;;;15.10;99.90;;;;;;5053915;28;20093;-71
2022/06/06 07:38:29;;;;;;;5.25;2.40;;;15.10;99.90;;;;;;5050079;28;20148;-71
2022/06/06 07:41:12;;;;;;;6.82;1.98;;;15.10;99.90;;;;;;5034230;28;20414;-71
2022/06/06 07:44:10;;;;;;;4.60;1.85;;;15.10;99.90;;;;;;5056172;28;20029;-71
2022/06/06 07:46:56;;;;;;;7.00;2.05;;;15.00;99.90;;;;;;5059592;28;20639;-71
2022/06/06 07:49:29;;;;;;;;;;;14.90;99.90;;;;;;5062133;28;20032;-71
2022/06/06 07:52:05;;;;;;;7.63;2.20;;;15.00;99.90;;;;;;5057805;28;19916;-72
2022/06/06 07:54:42;;;;;;;4.53;1.90;;;15.00;99.90;;;;;;5057946;28;20047;-71
2022/06/06 07:57:10;;;;;;;5.20;1.63;;;15.00;99.90;;;;;;5053686;28;20055;-71
2022/06/06 08:00:06;;;;;;;4.65;1.90;;;15.00;99.90;;;;;;5055322;28;20545;-72
2022/06/06 08:02:46;;;;;;;4.50;1.48;;;15.10;99.90;;;;;;5054076;28;20409;-72
2022/06/06 08:05:50;;;;;;;4.35;1.95;;;15.20;99.90;;;;;;5058639;28;20067;-71
2022/06/06 08:08:21;;;;;;;4.30;1.75;;;15.40;99.90;;;;;;5040851;28;20044;-71
2022/06/06 08:10:47;;;;;;;2.85;1.30;;;15.60;99.90;;;;;;5060519;28;20131;-71
2022/06/06 08:13:40;;;;;;;6.57;1.75;;;15.60;99.90;;;;;;5053942;28;20032;-71
2022/06/06 08:16:20;;;;;;;4.45;1.70;;;15.60;99.90;;;;;;5042107;28;20040;-71
2022/06/06 08:18:58;;;;;;;7.40;2.20;;;15.50;99.90;;;;;;5053425;28;20052;-71
2022/06/06 08:21:43;;;;;;;5.55;2.05;;;15.40;99.90;;;;;;5056572;28;20043;-69
2022/06/06 08:24:16;;;;;;;4.32;2.50;;;15.20;99.90;;;;;;5058130;28;20762;-71
2022/06/06 08:26:45;;;;;;;3.80;1.88;;;15.20;99.90;;;;;;5045084;28;20115;-72
2022/06/06 08:29:11;;;;;;;8.13;2.45;;;15.20;99.90;;;;;;5053988;28;20036;-71
2022/06/06 08:31:37;;;;;;;4.80;2.50;;;15.30;99.90;;;;;;5053003;28;20051;-71
2022/06/06 08:34:03;;;;;;;5.28;2.47;;;15.30;99.90;;;;;;5072395;28;20142;-71
2022/06/06 08:37:13;;;;;;;4.88;2.15;;;15.30;99.90;;;;;;5057087;28;20127;-71
2022/06/06 08:39:57;;;;;;;7.63;2.22;;;15.30;99.90;;;;;;4985019;28;20038;-71
2022/06/06 08:42:39;;;;;;;5.47;1.98;;;15.30;99.90;;;;;;5057736;28;20148;-71
2022/06/06 08:45:22;;;;;;;2.85;1.33;;;15.30;99.90;;;;;;5050462;28;20115;-71
2022/06/06 08:48:17;;;;;;;6.68;2.08;;;15.30;99.90;;;;;;5051666;28;20481;-71
2022/06/06 08:51:22;;;;;;;2.88;1.63;;;15.20;99.90;;;;;;5050365;28;20054;-71
2022/06/06 08:54:09;;;;;;;2.58;1.35;;;15.30;99.90;;;;;;5054378;28;20040;-71
2022/06/06 08:56:44;;;;;;;3.92;1.40;;;15.30;99.90;;;;;;5052871;28;20036;-71
2022/06/06 08:59:27;;;;;;;3.35;1.15;;;15.30;99.90;;;;;;5050743;28;20259;-71
2022/06/06 09:02:18;;;;;;;3.67;1.70;;;15.20;99.90;;;;;;5055760;28;20040;-71
2022/06/06 09:04:52;;;;;;;2.42;1.25;;;15.10;99.90;;;;;;5054907;28;20048;-70
2022/06/06 09:07:44;;;;;;;2.47;1.17;;;15.00;99.90;;;;;;5072544;28;20028;-71
2022/06/06 09:10:45;;;;;;;1.92;1.23;;;15.10;99.90;;;;;;5051671;28;20039;-71
2022/06/06 09:13:38;;;;;;;1.95;1.13;;;15.30;99.90;;;;;;5055663;28;20036;-70
2022/06/06 09:16:52;;;;;;;1.98;1.17;;;15.50;99.90;;;;;;5033491;28;20126;-71
2022/06/06 09:19:39;;;;;;;1.42;0.77;;;15.60;99.90;;;;;;5059501;28;20051;-71
2022/06/06 09:22:28;;;;;;;2.10;1.10;;;15.70;99.90;;;;;;5053163;28;20052;-71
2022/06/06 09:25:00;;;;;;;2.05;1.00;;;15.60;99.90;;;;;;5055073;28;20408;-71
2022/06/06 09:28:03;;;;;;;0.82;0.50;;;15.60;99.90;;;;;;5055473;28;20034;-71
2022/06/06 09:30:41;;;;;;;3.58;1.10;;;15.70;99.90;;;;;;5047810;28;20124;-72
2022/06/06 09:33:21;;;;;;;3.05;0.90;;;15.80;99.90;;;;;;5052557;28;20537;-70
2022/06/06 09:36:13;;;;;;;1.95;0.88;;;16.00;99.90;;;;;;5063034;28;20044;-70
2022/06/06 09:38:56;;;;;;;0.93;0.60;;;16.10;99.90;;;;;;5062597;28;20048;-69
2022/06/06 09:42:07;;;;;;;1.13;0.75;;;16.10;99.90;;;;;;5043936;28;20071;-70
2022/06/06 09:44:47;;;;;;;2.13;1.10;;;15.80;99.90;;;;;;5057799;28;20453;-69
2022/06/06 09:47:42;;;;;;;1.45;0.85;;;15.30;99.90;;;;;;5049156;28;20039;-70
2022/06/06 09:50:23;;;;;;;3.00;1.55;;;14.90;99.90;;;;;;5060344;28;20051;-70
2022/06/06 09:53:08;;;;;;;2.50;1.05;;;14.80;99.90;;;;;;5052053;28;20619;-70
2022/06/06 09:59:02;;;;;;;1.63;1.20;;;14.80;99.90;;;;;;5047708;28;20045;-70
2022/06/06 10:01:59;;;;;;;2.60;1.50;;;15.10;99.90;;;;;;5029979;28;20303;-71
2022/06/06 10:04:43;;;;;;;2.08;1.30;;;15.20;99.90;;;;;;5050759;28;20036;-70
2022/06/06 10:07:27;;;;;;;1.15;0.73;;;15.20;99.90;;;;;;5050480;28;20044;-71
2022/06/06 10:10:14;;;;;;;1.17;0.90;;;15.30;99.90;;;;;;5045746;28;20494;-70
2022/06/06 10:12:55;;;;;;;3.00;1.33;;;15.20;99.90;;;;;;5051332;28;20055;-70
2022/06/06 10:15:41;;;;;;;2.05;1.40;;;15.30;99.90;;;;;;5040094;28;20433;-70
2022/06/06 10:18:29;;;;;;;7.07;1.52;;;15.40;99.90;;;;;;5046610;28;20044;-70
2022/06/06 10:21:01;;;;;;;3.22;1.50;;;15.50;99.90;;;;;;5067299;28;20045;-71
2022/06/06 10:24:04;;;;;;;1.58;1.05;;;15.50;99.90;;;;;;5047951;28;20507;-70
2022/06/06 10:27:04;;;;;;;1.88;0.88;;;15.50;99.90;;;;;;5052260;28;20781;-70
2022/06/06 10:32:42;;;;;;;;;;;15.30;99.90;;;;;;5068753;28;20044;-71
2022/06/06 10:35:26;;;;;;;1.48;1.05;;;15.30;99.90;;;;;;5039020;28;19916;-70
2022/06/06 10:38:13;;;;;;;2.03;1.40;;;15.30;99.90;;;;;;5052796;28;20110;-70
2022/06/06 10:41:05;;;;;;;2.17;1.23;;;15.30;99.90;;;;;;5073312;28;20169;-70
2022/06/06 10:44:07;;;;;;;3.42;1.60;;;15.50;99.90;;;;;;5050373;28;19932;-70
2022/06/06 10:47:02;;;;;;;1.63;1.20;;;15.70;99.90;;;;;;5053946;28;20043;-71
2022/06/06 10:50:03;;;;;;;1.52;1.00;;;15.90;99.90;;;;;;5041605;28;20118;-71
2022/06/06 10:52:47;;;;;;;3.95;1.63;;;16.00;99.90;;;;;;5000990;28;20056;-71
2022/06/06 10:55:44;;;;;;;2.17;1.00;;;16.10;99.90;;;;;;5039257;28;20052;-70
2022/06/06 10:58:44;;;;;;;2.50;0.95;;;16.30;99.90;;;;;;5049539;28;20055;-70
2022/06/06 11:01:21;;;;;;;1.00;0.65;;;16.40;99.90;;;;;;5045026;28;20044;-70
2022/06/06 11:04:09;;;;;;;1.38;1.08;;;16.50;99.90;;;;;;5052337;28;20040;-70
2022/06/06 11:06:49;;;;;;;1.90;1.02;;;16.60;99.90;;;;;;5057831;28;20044;-71
2022/06/06 11:09:34;;;;;;;1.75;1.33;;;16.50;99.90;;;;;;5056330;28;20032;-71
2022/06/06 11:12:36;;;;;;;1.80;1.23;;;16.40;99.90;;;;;;5040448;28;20097;-71
2022/06/06 11:15:03;;;;;;;1.77;1.20;;;16.40;99.90;;;;;;5052163;28;20086;-71
2022/06/06 11:17:53;;;;;;;2.08;0.93;;;16.30;99.90;;;;;;5053657;28;20040;-70
2022/06/06 11:20:38;;;;;;;1.80;1.17;;;16.40;99.90;;;;;;5058789;28;20044;-70
2022/06/06 11:23:07;;;;;;;1.52;1.10;;;16.30;99.90;;;;;;5043855;28;20040;-72
2022/06/06 11:25:59;;;;;;;1.65;0.90;;;16.30;99.90;;;;;;5043287;28;20040;-72
2022/06/06 11:29:12;;;;;;;1.55;0.80;;;16.30;99.90;;;;;;5023248;28;20051;-71
2022/06/06 11:32:06;;;;;;;1.63;0.90;;;16.20;99.90;;;;;;4984535;28;20044;-71
2022/06/06 11:35:18;;;;;;;3.08;1.10;;;16.20;99.90;;;;;;5082644;28;20139;-71
2022/06/06 11:38:23;;;;;;;2.55;1.10;;;16.30;99.90;;;;;;5053384;28;20048;-71
2022/06/06 11:41:03;;;;;;;1.25;1.00;;;16.30;99.90;;;;;;5052485;28;20067;-71
2022/06/06 11:43:53;;;;;;;1.50;0.70;;;16.40;99.90;;;;;;5071097;28;20101;-71
2022/06/06 11:46:46;;;;;;;2.72;0.82;;;16.40;99.90;;;;;;5069977;28;20039;-71
2022/06/06 11:49:37;;;;;;;1.33;0.77;;;16.30;99.90;;;;;;5070113;28;20195;-71
2022/06/06 11:52:15;;;;;;;2.80;1.10;;;16.40;99.90;;;;;;5056092;28;20037;-71
2022/06/06 11:55:24;;;;;;;1.30;0.95;;;16.40;99.90;;;;;;5072378;28;20089;-71
2022/06/06 11:58:01;;;;;;;1.02;0.70;;;16.50;99.90;;;;;;5062913;28;20048;-71
2022/06/06 12:00:55;;;;;;;1.30;0.80;;;16.60;99.90;;;;;;5082125;28;20126;-71
2022/06/06 12:04:15;;;;;;;1.58;1.00;;;16.70;99.90;;;;;;5077042;28;20055;-71
2022/06/06 12:06:53;;;;;;;0.98;0.70;;;16.80;99.90;;;;;;5004383;28;20077;-71
2022/06/06 12:09:27;;;;;;;1.40;0.73;;;16.90;99.90;;;;;;5061089;28;20044;-71
2022/06/06 12:12:18;;;;;;;0.90;0.70;;;17.00;99.90;;;;;;5065745;28;20123;-71
2022/06/06 12:15:01;;;;;;;1.48;0.68;;;17.00;99.90;;;;;;5062472;28;20047;-71
2022/06/06 12:17:35;;;;;;;1.90;0.90;;;17.10;99.90;;;;;;5063336;28;20496;-71
2022/06/06 12:20:27;;;;;;;4.25;0.70;;;17.10;99.90;;;;;;5043295;28;20414;-70
2022/06/06 12:23:11;;;;;;;1.15;0.60;;;17.10;99.90;;;;;;5059981;28;20494;-71
2022/06/06 12:26:07;;;;;;;1.45;0.70;;;17.20;99.90;;;;;;5044692;28;20564;-71
2022/06/06 12:29:02;;;;;;;1.42;0.63;;;17.20;99.90;;;;;;5061121;28;20089;-71
2022/06/06 12:31:47;;;;;;;1.02;0.40;;;17.20;99.90;;;;;;5062113;28;20406;-71
2022/06/06 12:34:19;;;;;;;0.40;0.40;;;17.20;99.90;;;;;;5062635;28;20121;-71
2022/06/06 12:37:08;;;;;;;0.32;0.30;;;17.30;99.90;;;;;;5061524;28;20843;-71
2022/06/06 12:40:03;;;;;;;0.50;0.22;;;17.40;99.90;;;;;;5059318;28;20072;-71
2022/06/06 12:42:43;;;;;;;0.65;0.40;;;17.30;99.90;;;;;;5064351;28;20044;-70
2022/06/06 12:45:28;;;;;;;3.38;0.30;;;17.30;99.90;;;;;;5061246;28;20451;-71
2022/06/06 12:47:54;;;;;;;0.28;0.25;;;17.20;99.90;;;;;;5076862;28;20494;-71
2022/06/06 12:50:24;;;;;;;0.80;0.47;;;17.10;99.90;;;;;;5061245;28;20038;-70
2022/06/06 12:53:20;;;;;;;0.88;0.50;;;17.10;99.90;;;;;;5058761;28;20097;-71
2022/06/06 12:56:37;;;;;;;0.85;0.40;;;17.10;99.90;;;;;;5059811;28;20036;-71
2022/06/06 12:59:19;;;;;;;0.95;0.55;;;17.10;99.90;;;;;;4980517;28;20503;-70
2022/06/06 13:02:34;;;;;;;1.08;0.70;;;17.00;99.90;;;;;;4982738;28;20367;-71
2022/06/06 13:05:03;;;;;;;1.02;0.52;;;17.00;99.90;;;;;;5062380;28;20040;-71
2022/06/06 13:08:08;;;;;;;0.95;0.57;;;16.90;99.90;;;;;;5077209;28;20122;-70
2022/06/06 13:10:52;;;;;;;0.73;0.50;;;16.90;99.90;;;;;;5060132;28;20454;-71
2022/06/06 13:13:39;;;;;;;0.77;0.65;;;16.80;99.90;;;;;;5076694;28;20037;-71
2022/06/06 13:16:27;;;;;;;0.90;0.52;;;16.90;99.90;;;;;;5044684;28;20032;-71
2022/06/06 13:19:05;;;;;;;1.05;0.38;;;16.90;99.90;;;;;;5042617;28;20089;-71
2022/06/06 13:21:48;;;;;;;0.50;0.32;;;16.80;99.90;;;;;;5080741;28;20037;-71
2022/06/06 13:24:40;;;;;;;3.00;0.50;;;16.80;99.90;;;;;;5064446;28;20032;-71
2022/06/06 13:27:18;;;;;;;1.00;0.63;;;16.70;99.90;;;;;;5030131;28;20044;-71
2022/06/06 13:29:46;;;;;;;0.80;0.40;;;16.80;99.90;;;;;;5058162;28;20032;-70
2022/06/06 13:32:57;;;;;;;0.85;0.50;;;16.90;99.90;;;;;;5042872;28;21827;-71
2022/06/06 13:35:48;;;;;;;0.50;0.40;;;16.90;99.90;;;;;;5050957;28;20044;-71
2022/06/06 13:38:23;;;;;;;1.52;0.30;;;16.90;99.90;;;;;;5056400;28;20055;-71
2022/06/06 13:41:02;;;;;;;0.90;0.40;;;16.90;99.90;;;;;;5054698;28;20048;-71
2022/06/06 13:43:31;;;;;;;0.52;0.40;;;16.80;99.90;;;;;;5054764;28;20131;-71
2022/06/06 13:46:20;;;;;;;0.73;0.40;;;16.80;99.90;;;;;;5057120;28;20051;-70
2022/06/06 13:48:57;;;;;;;1.65;0.45;;;16.70;99.90;;;;;;5037706;28;20524;-70
2022/06/06 13:52:01;;;;;;;0.90;0.50;;;16.60;99.90;;;;;;5080166;28;20040;-70
2022/06/06 13:54:33;;;;;;;0.77;0.50;;;16.50;99.90;;;;;;5005669;28;20055;-70
2022/06/06 13:57:04;;;;;;;0.85;0.60;;;16.40;99.90;;;;;;5046150;28;20435;-71
2022/06/06 13:59:35;;;;;;;1.77;0.70;;;16.30;99.90;;;;;;5056813;28;20044;-71
2022/06/06 14:02:25;;;;;;;1.27;0.50;;;16.20;99.90;;;;;;5074816;28;20040;-70
2022/06/06 14:05:19;;;;;;;1.10;0.60;;;16.00;99.90;;;;;;5054608;28;20119;-71
2022/06/06 14:07:57;;;;;;;1.45;0.80;;;15.80;99.90;;;;;;5055419;28;20032;-71
2022/06/06 14:10:37;;;;;;;1.15;0.80;;;15.70;99.90;;;;;;5063199;28;20039;-70
2022/06/06 14:13:21;;;;;;;1.25;0.70;;;15.60;99.90;;;;;;5054793;28;20052;-70
2022/06/06 14:15:47;;;;;;;0.93;0.55;;;15.50;99.90;;;;;;5042851;28;20092;-71
2022/06/06 14:18:25;;;;;;;3.25;0.90;;;15.40;99.90;;;;;;5052841;28;20060;-70